sensor_id;sensor_type;location;lat;lon;timestamp;temperature;humidity
7317;DHT22;3699;51.462;6.696;2023-08-31T00:02:19;13.40;99.90
7317;DHT22;3699;51.462;6.696;2023-08-31T00:04:46;13.30;99.90
7317;DHT22;3699;51.462;6.696;2023-08-31T00:07:14;13.30;99.90
7317;DHT22;3699;51.462;6.696;2023-08-31T00:09:41;13.30;99.90
7317;DHT22;3699;51.462;6.696;2023-08-31T00:12:08;13.30;99.90
7317;DHT22;3699;51.462;6.696;2023-08-31T00:14:35;13.30;99.90
7317;DHT22;3699;51.462;6.696;2023-08-31T00:17:02;13.20;99.90
7317;DHT22;3699;51.462;6.696;2023-08-31T00:19:30;13.20;99.90
7317;DHT22;3699;51.462;6.696;2023-08-31T00:21:57;13.20;99.90
7317;DHT22;3699;51.462;6.696;2023-08-31T00:24:25;13.20;99.90
7317;DHT22;3699;51.462;6.696;2023-08-31T00:26:55;13.10;99.90
7317;DHT22;3699;51.462;6.696;2023-08-31T00:29:22;13.10;99.90
7317;DHT22;3699;51.462;6.696;2023-08-31T00:31:50;13.10;99.90
7317;DHT22;3699;51.462;6.696;2023-08-31T00:34:18;13.10;99.90
7317;DHT22;3699;51.462;6.696;2023-08-31T00:36:45;13.00;99.90
7317;DHT22;3699;51.462;6.696;2023-08-31T00:39:12;13.00;99.90
7317;DHT22;3699;51.462;6.696;2023-08-31T00:41:40;13.00;99.90
7317;DHT22;3699;51.462;6.696;2023-08-31T00:44:07;12.90;99.90
7317;DHT22;3699;51.462;6.696;2023-08-31T00:46:34;12.90;99.90
7317;DHT22;3699;51.462;6.696;2023-08-31T00:49:01;12.90;99.90
7317;DHT22;3699;51.462;6.696;2023-08-31T00:51:29;12.80;99.90
7317;DHT22;3699;51.462;6.696;2023-08-31T00:53:56;12.80;99.90
7317;DHT22;3699;51.462;6.696;2023-08-31T00:56:24;12.80;99.90
7317;DHT22;3699;51.462;6.696;2023-08-31T00:58:53;12.80;99.90
7317;DHT22;3699;51.462;6.696;2023-08-31T01:01:24;12.70;99.90
7317;DHT22;3699;51.462;6.696;2023-08-31T01:03:58;12.80;99.90
7317;DHT22;3699;51.462;6.696;2023-08-31T01:06:36;12.70;99.90
7317;DHT22;3699;51.462;6.696;2023-08-31T01:09:12;12.70;99.90
7317;DHT22;3699;51.462;6.696;2023-08-31T01:11:49;12.70;99.90
7317;DHT22;3699;51.462;6.696;2023-08-31T01:14:27;12.70;99.90
7317;DHT22;3699;51.462;6.696;2023-08-31T01:16:58;12.70;99.90
7317;DHT22;3699;51.462;6.696;2023-08-31T01:19:38;12.60;99.90
7317;DHT22;3699;51.462;6.696;2023-08-31T01:22:11;12.60;99.90
7317;DHT22;3699;51.462;6.696;2023-08-31T01:24:40;12.60;99.90
7317;DHT22;3699;51.462;6.696;2023-08-31T01:27:08;12.60;99.90
7317;DHT22;3699;51.462;6.696;2023-08-31T01:29:34;12.60;99.90
7317;DHT22;3699;51.462;6.696;2023-08-31T01:32:05;12.60;99.90
7317;DHT22;3699;51.462;6.696;2023-08-31T01:34:32;12.50;99.90
7317;DHT22;3699;51.462;6.696;2023-08-31T01:37:08;12.50;99.90
7317;DHT22;3699;51.462;6.696;2023-08-31T01:39:41;12.50;99.90
7317;DHT22;3699;51.462;6.696;2023-08-31T01:42:15;12.50;99.90
7317;DHT22;3699;51.462;6.696;2023-08-31T01:44:43;12.50;99.90
7317;DHT22;3699;51.462;6.696;2023-08-31T01:47:15;12.50;99.90
7317;DHT22;3699;51.462;6.696;2023-08-31T01:49:44;12.40;99.90
7317;DHT22;3699;51.462;6.696;2023-08-31T01:52:11;12.40;99.90
7317;DHT22;3699;51.462;6.696;2023-08-31T01:54:38;12.40;99.90
7317;DHT22;3699;51.462;6.696;2023-08-31T01:57:06;12.40;99.90
7317;DHT22;3699;51.462;6.696;2023-08-31T01:59:33;12.40;99.90
7317;DHT22;3699;51.462;6.696;2023-08-31T02:02:00;12.40;99.90
7317;DHT22;3699;51.462;6.696;2023-08-31T02:04:27;12.30;99.90
7317;DHT22;3699;51.462;6.696;2023-08-31T02:06:54;12.30;99.90
7317;DHT22;3699;51.462;6.696;2023-08-31T02:09:21;12.30;99.90
7317;DHT22;3699;51.462;6.696;2023-08-31T02:11:47;12.30;99.90
7317;DHT22;3699;51.462;6.696;2023-08-31T02:14:16;12.30;99.90
7317;DHT22;3699;51.462;6.696;2023-08-31T02:16:42;12.30;99.90
7317;DHT22;3699;51.462;6.696;2023-08-31T02:19:09;12.30;99.90
7317;DHT22;3699;51.462;6.696;2023-08-31T02:21:36;12.30;99.90
7317;DHT22;3699;51.462;6.696;2023-08-31T02:24:04;12.30;99.90
7317;DHT22;3699;51.462;6.696;2023-08-31T02:26:31;12.30;99.90
7317;DHT22;3699;51.462;6.696;2023-08-31T02:28:58;12.30;99.90
7317;DHT22;3699;51.462;6.696;2023-08-31T02:31:26;12.20;99.90
7317;DHT22;3699;51.462;6.696;2023-08-31T02:33:52;12.20;99.90
7317;DHT22;3699;51.462;6.696;2023-08-31T02:36:19;12.20;99.90
7317;DHT22;3699;51.462;6.696;2023-08-31T02:38:46;12.20;99.90
7317;DHT22;3699;51.462;6.696;2023-08-31T02:41:15;12.20;99.90
7317;DHT22;3699;51.462;6.696;2023-08-31T02:43:41;12.10;99.90
7317;DHT22;3699;51.462;6.696;2023-08-31T02:46:08;12.10;99.90
7317;DHT22;3699;51.462;6.696;2023-08-31T02:48:36;12.20;99.90
7317;DHT22;3699;51.462;6.696;2023-08-31T02:51:04;12.10;99.90
7317;DHT22;3699;51.462;6.696;2023-08-31T02:53:30;12.10;99.90
7317;DHT22;3699;51.462;6.696;2023-08-31T02:55:58;12.10;99.90
7317;DHT22;3699;51.462;6.696;2023-08-31T02:58:25;12.10;99.90
7317;DHT22;3699;51.462;6.696;2023-08-31T03:00:52;12.10;99.90
7317;DHT22;3699;51.462;6.696;2023-08-31T03:03:19;12.10;99.90
7317;DHT22;3699;51.462;6.696;2023-08-31T03:05:47;12.00;99.90
7317;DHT22;3699;51.462;6.696;2023-08-31T03:08:14;12.00;99.90
7317;DHT22;3699;51.462;6.696;2023-08-31T03:10:40;12.00;99.90
7317;DHT22;3699;51.462;6.696;2023-08-31T03:13:07;12.00;99.90
7317;DHT22;3699;51.462;6.696;2023-08-31T03:15:34;12.00;99.90
7317;DHT22;3699;51.462;6.696;2023-08-31T03:18:01;12.00;99.90
7317;DHT22;3699;51.462;6.696;2023-08-31T03:20:28;12.00;99.90
7317;DHT22;3699;51.462;6.696;2023-08-31T03:22:56;12.00;99.90
7317;DHT22;3699;51.462;6.696;2023-08-31T03:25:22;12.00;99.90
7317;DHT22;3699;51.462;6.696;2023-08-31T03:27:49;12.00;99.90
7317;DHT22;3699;51.462;6.696;2023-08-31T03:30:16;12.00;99.90
7317;DHT22;3699;51.462;6.696;2023-08-31T03:32:43;12.00;99.90
7317;DHT22;3699;51.462;6.696;2023-08-31T03:35:10;12.00;99.90
7317;DHT22;3699;51.462;6.696;2023-08-31T03:37:37;12.00;99.90
7317;DHT22;3699;51.462;6.696;2023-08-31T03:40:06;12.00;99.90
7317;DHT22;3699;51.462;6.696;2023-08-31T03:42:34;12.00;99.90
7317;DHT22;3699;51.462;6.696;2023-08-31T03:45:01;12.00;99.90
7317;DHT22;3699;51.462;6.696;2023-08-31T03:47:28;11.90;99.90
7317;DHT22;3699;51.462;6.696;2023-08-31T03:49:55;11.90;99.90
7317;DHT22;3699;51.462;6.696;2023-08-31T03:52:22;12.00;99.90
7317;DHT22;3699;51.462;6.696;2023-08-31T03:54:51;12.00;99.90
7317;DHT22;3699;51.462;6.696;2023-08-31T03:57:19;12.00;99.90
7317;DHT22;3699;51.462;6.696;2023-08-31T03:59:45;12.00;99.90
7317;DHT22;3699;51.462;6.696;2023-08-31T04:02:12;11.90;99.90
7317;DHT22;3699;51.462;6.696;2023-08-31T04:04:39;11.90;99.90
7317;DHT22;3699;51.462;6.696;2023-08-31T04:07:06;11.90;99.90
7317;DHT22;3699;51.462;6.696;2023-08-31T04:09:33;11.90;99.90
7317;DHT22;3699;51.462;6.696;2023-08-31T04:11:59;11.80;99.90
7317;DHT22;3699;51.462;6.696;2023-08-31T04:14:28;11.80;99.90
7317;DHT22;3699;51.462;6.696;2023-08-31T04:16:55;11.80;99.90
7317;DHT22;3699;51.462;6.696;2023-08-31T04:19:22;11.80;99.90
7317;DHT22;3699;51.462;6.696;2023-08-31T04:21:48;11.80;99.90
7317;DHT22;3699;51.462;6.696;2023-08-31T04:24:15;11.80;99.90
7317;DHT22;3699;51.462;6.696;2023-08-31T04:26:43;11.80;99.90
7317;DHT22;3699;51.462;6.696;2023-08-31T04:29:10;11.80;99.90
7317;DHT22;3699;51.462;6.696;2023-08-31T04:31:38;11.80;99.90
7317;DHT22;3699;51.462;6.696;2023-08-31T04:34:05;11.80;99.90
7317;DHT22;3699;51.462;6.696;2023-08-31T04:36:32;11.80;99.90
7317;DHT22;3699;51.462;6.696;2023-08-31T04:38:59;11.80;99.90
7317;DHT22;3699;51.462;6.696;2023-08-31T04:41:26;11.80;99.90
7317;DHT22;3699;51.462;6.696;2023-08-31T04:43:53;12.00;99.90
7317;DHT22;3699;51.462;6.696;2023-08-31T04:46:20;11.80;99.90
7317;DHT22;3699;51.462;6.696;2023-08-31T04:48:48;11.80;99.90
7317;DHT22;3699;51.462;6.696;2023-08-31T04:51:28;11.80;99.90
7317;DHT22;3699;51.462;6.696;2023-08-31T04:53:54;11.80;99.90
7317;DHT22;3699;51.462;6.696;2023-08-31T04:56:21;11.90;99.90
7317;DHT22;3699;51.462;6.696;2023-08-31T04:58:48;11.90;99.90
7317;DHT22;3699;51.462;6.696;2023-08-31T05:01:15;11.90;99.90
7317;DHT22;3699;51.462;6.696;2023-08-31T05:03:42;12.00;99.90
7317;DHT22;3699;51.462;6.696;2023-08-31T05:06:10;12.00;99.90
7317;DHT22;3699;51.462;6.696;2023-08-31T05:08:36;12.00;99.90
7317;DHT22;3699;51.462;6.696;2023-08-31T05:11:04;12.00;99.90
7317;DHT22;3699;51.462;6.696;2023-08-31T05:13:30;12.00;99.90
7317;DHT22;3699;51.462;6.696;2023-08-31T05:15:57;12.10;99.90
7317;DHT22;3699;51.462;6.696;2023-08-31T05:18:24;12.10;99.90
7317;DHT22;3699;51.462;6.696;2023-08-31T05:20:51;12.20;99.90
7317;DHT22;3699;51.462;6.696;2023-08-31T05:23:19;12.20;99.90
7317;DHT22;3699;51.462;6.696;2023-08-31T05:25:46;12.30;99.90
7317;DHT22;3699;51.462;6.696;2023-08-31T05:28:12;12.30;99.90
7317;DHT22;3699;51.462;6.696;2023-08-31T05:30:47;12.40;99.90
7317;DHT22;3699;51.462;6.696;2023-08-31T05:33:15;12.40;99.90
7317;DHT22;3699;51.462;6.696;2023-08-31T05:35:42;12.50;99.90
7317;DHT22;3699;51.462;6.696;2023-08-31T05:38:08;12.60;99.90
7317;DHT22;3699;51.462;6.696;2023-08-31T05:40:36;12.70;99.90
7317;DHT22;3699;51.462;6.696;2023-08-31T05:43:11;12.70;99.90
7317;DHT22;3699;51.462;6.696;2023-08-31T05:45:38;12.80;99.90
7317;DHT22;3699;51.462;6.696;2023-08-31T05:48:06;13.00;99.90
7317;DHT22;3699;51.462;6.696;2023-08-31T05:50:32;13.20;99.90
7317;DHT22;3699;51.462;6.696;2023-08-31T05:52:59;13.90;99.90
7317;DHT22;3699;51.462;6.696;2023-08-31T05:55:26;14.10;99.90
7317;DHT22;3699;51.462;6.696;2023-08-31T05:57:54;14.50;99.90
7317;DHT22;3699;51.462;6.696;2023-08-31T06:00:21;14.80;99.90
7317;DHT22;3699;51.462;6.696;2023-08-31T06:02:47;15.20;99.90
7317;DHT22;3699;51.462;6.696;2023-08-31T06:05:14;15.50;99.90
7317;DHT22;3699;51.462;6.696;2023-08-31T06:07:42;15.80;99.90
7317;DHT22;3699;51.462;6.696;2023-08-31T06:10:09;16.20;99.90
7317;DHT22;3699;51.462;6.696;2023-08-31T06:12:36;16.50;99.90
7317;DHT22;3699;51.462;6.696;2023-08-31T06:15:05;16.80;99.90
7317;DHT22;3699;51.462;6.696;2023-08-31T06:17:32;17.10;99.90
7317;DHT22;3699;51.462;6.696;2023-08-31T06:20:00;17.30;99.90
7317;DHT22;3699;51.462;6.696;2023-08-31T06:22:27;17.60;99.90
7317;DHT22;3699;51.462;6.696;2023-08-31T06:24:54;17.80;99.90
7317;DHT22;3699;51.462;6.696;2023-08-31T06:27:21;18.00;99.90
7317;DHT22;3699;51.462;6.696;2023-08-31T06:29:47;18.20;99.90
7317;DHT22;3699;51.462;6.696;2023-08-31T06:32:16;18.40;99.90
7317;DHT22;3699;51.462;6.696;2023-08-31T06:34:43;18.50;99.90
7317;DHT22;3699;51.462;6.696;2023-08-31T06:37:10;18.70;99.90
7317;DHT22;3699;51.462;6.696;2023-08-31T06:39:37;18.90;99.90
7317;DHT22;3699;51.462;6.696;2023-08-31T06:42:05;19.10;99.90
7317;DHT22;3699;51.462;6.696;2023-08-31T06:44:31;19.30;99.90
7317;DHT22;3699;51.462;6.696;2023-08-31T06:46:58;19.40;99.90
7317;DHT22;3699;51.462;6.696;2023-08-31T06:49:26;19.50;99.90
7317;DHT22;3699;51.462;6.696;2023-08-31T06:51:53;19.60;99.90
7317;DHT22;3699;51.462;6.696;2023-08-31T06:54:20;19.80;99.90
7317;DHT22;3699;51.462;6.696;2023-08-31T06:56:47;19.90;99.90
7317;DHT22;3699;51.462;6.696;2023-08-31T06:59:14;20.00;99.90
7317;DHT22;3699;51.462;6.696;2023-08-31T07:01:41;20.10;99.90
7317;DHT22;3699;51.462;6.696;2023-08-31T07:04:09;20.30;99.90
7317;DHT22;3699;51.462;6.696;2023-08-31T07:06:37;20.40;99.90
7317;DHT22;3699;51.462;6.696;2023-08-31T07:09:04;20.30;99.90
7317;DHT22;3699;51.462;6.696;2023-08-31T07:11:34;19.90;99.90
7317;DHT22;3699;51.462;6.696;2023-08-31T07:14:01;19.40;99.90
7317;DHT22;3699;51.462;6.696;2023-08-31T07:16:28;19.00;99.90
7317;DHT22;3699;51.462;6.696;2023-08-31T07:18:55;18.60;99.90
7317;DHT22;3699;51.462;6.696;2023-08-31T07:21:22;18.20;99.90
7317;DHT22;3699;51.462;6.696;2023-08-31T07:23:58;17.90;99.90
7317;DHT22;3699;51.462;6.696;2023-08-31T07:26:25;17.90;99.90
7317;DHT22;3699;51.462;6.696;2023-08-31T07:28:52;18.10;99.90
7317;DHT22;3699;51.462;6.696;2023-08-31T07:31:20;18.40;99.90
7317;DHT22;3699;51.462;6.696;2023-08-31T07:33:48;18.70;99.90
7317;DHT22;3699;51.462;6.696;2023-08-31T07:36:15;19.70;99.90
7317;DHT22;3699;51.462;6.696;2023-08-31T07:38:48;19.10;99.90
7317;DHT22;3699;51.462;6.696;2023-08-31T07:41:16;19.30;99.90
7317;DHT22;3699;51.462;6.696;2023-08-31T07:43:42;19.50;99.90
7317;DHT22;3699;51.462;6.696;2023-08-31T07:46:10;19.70;99.90
7317;DHT22;3699;51.462;6.696;2023-08-31T07:48:36;19.70;99.90
7317;DHT22;3699;51.462;6.696;2023-08-31T07:51:03;20.20;99.90
7317;DHT22;3699;51.462;6.696;2023-08-31T07:53:30;20.00;99.90
7317;DHT22;3699;51.462;6.696;2023-08-31T07:55:57;20.00;99.90
7317;DHT22;3699;51.462;6.696;2023-08-31T07:58:25;20.10;99.90
7317;DHT22;3699;51.462;6.696;2023-08-31T08:00:53;20.20;99.90
7317;DHT22;3699;51.462;6.696;2023-08-31T08:03:20;20.30;99.90
7317;DHT22;3699;51.462;6.696;2023-08-31T08:05:46;20.20;99.90
7317;DHT22;3699;51.462;6.696;2023-08-31T08:08:13;20.20;99.90
7317;DHT22;3699;51.462;6.696;2023-08-31T08:10:40;20.30;99.90
7317;DHT22;3699;51.462;6.696;2023-08-31T08:13:08;20.30;99.90
7317;DHT22;3699;51.462;6.696;2023-08-31T08:15:38;20.50;99.90
7317;DHT22;3699;51.462;6.696;2023-08-31T08:18:05;20.40;99.90
7317;DHT22;3699;51.462;6.696;2023-08-31T08:20:35;20.40;99.90
7317;DHT22;3699;51.462;6.696;2023-08-31T08:23:02;20.60;99.90
7317;DHT22;3699;51.462;6.696;2023-08-31T08:25:28;20.90;99.90
7317;DHT22;3699;51.462;6.696;2023-08-31T08:27:55;21.00;99.90
7317;DHT22;3699;51.462;6.696;2023-08-31T08:30:22;21.20;99.90
7317;DHT22;3699;51.462;6.696;2023-08-31T08:32:50;21.70;99.90
7317;DHT22;3699;51.462;6.696;2023-08-31T08:35:17;21.60;99.90
7317;DHT22;3699;51.462;6.696;2023-08-31T08:37:44;21.60;99.90
7317;DHT22;3699;51.462;6.696;2023-08-31T08:40:11;21.80;99.90
7317;DHT22;3699;51.462;6.696;2023-08-31T08:42:40;21.70;99.90
7317;DHT22;3699;51.462;6.696;2023-08-31T08:45:09;21.80;99.90
7317;DHT22;3699;51.462;6.696;2023-08-31T08:47:40;21.90;99.90
7317;DHT22;3699;51.462;6.696;2023-08-31T08:50:10;21.80;99.90
7317;DHT22;3699;51.462;6.696;2023-08-31T08:52:38;21.80;99.90
7317;DHT22;3699;51.462;6.696;2023-08-31T08:55:06;22.00;99.90
7317;DHT22;3699;51.462;6.696;2023-08-31T08:57:34;22.00;99.90
7317;DHT22;3699;51.462;6.696;2023-08-31T09:00:00;22.10;99.90
7317;DHT22;3699;51.462;6.696;2023-08-31T09:02:28;22.10;99.90
7317;DHT22;3699;51.462;6.696;2023-08-31T09:04:55;22.10;99.90
7317;DHT22;3699;51.462;6.696;2023-08-31T09:07:23;22.20;99.90
7317;DHT22;3699;51.462;6.696;2023-08-31T09:09:52;22.20;99.90
7317;DHT22;3699;51.462;6.696;2023-08-31T09:12:22;22.00;99.90
7317;DHT22;3699;51.462;6.696;2023-08-31T09:14:58;22.00;99.90
7317;DHT22;3699;51.462;6.696;2023-08-31T09:17:25;22.10;99.90
7317;DHT22;3699;51.462;6.696;2023-08-31T09:20:00;22.10;99.90
7317;DHT22;3699;51.462;6.696;2023-08-31T09:22:30;22.00;99.90
7317;DHT22;3699;51.462;6.696;2023-08-31T09:24:57;22.00;99.90
7317;DHT22;3699;51.462;6.696;2023-08-31T09:27:24;22.30;99.90
7317;DHT22;3699;51.462;6.696;2023-08-31T09:29:51;22.40;99.90
7317;DHT22;3699;51.462;6.696;2023-08-31T09:32:20;22.10;99.90
7317;DHT22;3699;51.462;6.696;2023-08-31T09:34:47;22.20;99.90
7317;DHT22;3699;51.462;6.696;2023-08-31T09:37:16;22.20;99.90
7317;DHT22;3699;51.462;6.696;2023-08-31T09:39:45;21.70;99.90
7317;DHT22;3699;51.462;6.696;2023-08-31T09:42:12;21.60;99.90
7317;DHT22;3699;51.462;6.696;2023-08-31T09:44:43;21.60;99.90
7317;DHT22;3699;51.462;6.696;2023-08-31T09:47:12;21.60;99.90
7317;DHT22;3699;51.462;6.696;2023-08-31T09:49:41;21.70;99.90
7317;DHT22;3699;51.462;6.696;2023-08-31T09:52:09;21.80;99.90
7317;DHT22;3699;51.462;6.696;2023-08-31T09:54:36;22.00;99.90
7317;DHT22;3699;51.462;6.696;2023-08-31T09:57:05;22.30;99.90
7317;DHT22;3699;51.462;6.696;2023-08-31T09:59:32;22.70;96.00
7317;DHT22;3699;51.462;6.696;2023-08-31T10:02:00;22.80;87.20
7317;DHT22;3699;51.462;6.696;2023-08-31T10:04:29;22.90;90.60
7317;DHT22;3699;51.462;6.696;2023-08-31T10:06:58;23.00;87.90
7317;DHT22;3699;51.462;6.696;2023-08-31T10:09:26;23.10;83.20
7317;DHT22;3699;51.462;6.696;2023-08-31T10:11:54;23.20;91.60
7317;DHT22;3699;51.462;6.696;2023-08-31T10:14:22;23.30;74.00
7317;DHT22;3699;51.462;6.696;2023-08-31T10:16:49;23.10;66.90
7317;DHT22;3699;51.462;6.696;2023-08-31T10:19:18;22.90;66.90
7317;DHT22;3699;51.462;6.696;2023-08-31T10:21:44;22.50;67.20
7317;DHT22;3699;51.462;6.696;2023-08-31T10:24:13;22.20;71.20
7317;DHT22;3699;51.462;6.696;2023-08-31T10:26:40;22.10;81.30
7317;DHT22;3699;51.462;6.696;2023-08-31T10:29:27;22.00;88.90
7317;DHT22;3699;51.462;6.696;2023-08-31T10:31:55;22.10;92.00
7317;DHT22;3699;51.462;6.696;2023-08-31T10:34:37;22.30;83.50
7317;DHT22;3699;51.462;6.696;2023-08-31T10:37:20;22.30;62.20
7317;DHT22;3699;51.462;6.696;2023-08-31T10:39:48;22.30;68.20
7317;DHT22;3699;51.462;6.696;2023-08-31T10:42:15;22.30;59.40
7317;DHT22;3699;51.462;6.696;2023-08-31T10:44:42;22.30;69.30
7317;DHT22;3699;51.462;6.696;2023-08-31T10:49:50;22.60;73.10
7317;DHT22;3699;51.462;6.696;2023-08-31T10:52:19;22.80;77.00
7317;DHT22;3699;51.462;6.696;2023-08-31T10:54:47;23.00;69.50
7317;DHT22;3699;51.462;6.696;2023-08-31T10:57:14;23.30;72.10
7317;DHT22;3699;51.462;6.696;2023-08-31T10:59:43;23.30;66.00
7317;DHT22;3699;51.462;6.696;2023-08-31T11:02:26;23.30;70.10
7317;DHT22;3699;51.462;6.696;2023-08-31T11:04:55;23.20;66.30
7317;DHT22;3699;51.462;6.696;2023-08-31T11:07:24;23.00;67.90
7317;DHT22;3699;51.462;6.696;2023-08-31T11:09:52;22.70;68.70
7317;DHT22;3699;51.462;6.696;2023-08-31T11:12:22;22.50;73.50
7317;DHT22;3699;51.462;6.696;2023-08-31T11:14:49;22.40;76.70
7317;DHT22;3699;51.462;6.696;2023-08-31T11:17:16;22.20;79.90
7317;DHT22;3699;51.462;6.696;2023-08-31T11:19:44;22.00;76.90
7317;DHT22;3699;51.462;6.696;2023-08-31T11:22:12;21.90;79.50
7317;DHT22;3699;51.462;6.696;2023-08-31T11:24:39;22.10;75.80
7317;DHT22;3699;51.462;6.696;2023-08-31T11:27:08;22.40;80.40
7317;DHT22;3699;51.462;6.696;2023-08-31T11:29:37;22.70;78.90
7317;DHT22;3699;51.462;6.696;2023-08-31T11:32:05;23.10;65.30
7317;DHT22;3699;51.462;6.696;2023-08-31T11:34:32;23.20;62.30
7317;DHT22;3699;51.462;6.696;2023-08-31T11:36:58;23.10;61.60
7317;DHT22;3699;51.462;6.696;2023-08-31T11:39:27;22.80;62.60
7317;DHT22;3699;51.462;6.696;2023-08-31T11:41:55;22.70;66.90
7317;DHT22;3699;51.462;6.696;2023-08-31T11:44:23;22.40;66.60
7317;DHT22;3699;51.462;6.696;2023-08-31T11:46:50;22.30;63.60
7317;DHT22;3699;51.462;6.696;2023-08-31T11:49:18;22.30;69.10
7317;DHT22;3699;51.462;6.696;2023-08-31T11:51:45;22.20;66.40
7317;DHT22;3699;51.462;6.696;2023-08-31T11:54:12;22.10;66.20
7317;DHT22;3699;51.462;6.696;2023-08-31T11:56:42;22.00;70.50
7317;DHT22;3699;51.462;6.696;2023-08-31T11:59:09;22.20;70.40
7317;DHT22;3699;51.462;6.696;2023-08-31T12:01:40;22.50;76.90
7317;DHT22;3699;51.462;6.696;2023-08-31T12:04:12;22.70;72.50
7317;DHT22;3699;51.462;6.696;2023-08-31T12:06:39;22.90;67.80
7317;DHT22;3699;51.462;6.696;2023-08-31T12:09:07;23.00;74.60
7317;DHT22;3699;51.462;6.696;2023-08-31T12:11:34;23.40;67.50
7317;DHT22;3699;51.462;6.696;2023-08-31T12:14:03;23.70;65.60
7317;DHT22;3699;51.462;6.696;2023-08-31T12:16:33;23.90;66.10
7317;DHT22;3699;51.462;6.696;2023-08-31T12:19:02;23.90;60.20
7317;DHT22;3699;51.462;6.696;2023-08-31T12:21:30;24.10;63.00
7317;DHT22;3699;51.462;6.696;2023-08-31T12:23:58;24.20;63.90
7317;DHT22;3699;51.462;6.696;2023-08-31T12:26:25;24.20;59.00
7317;DHT22;3699;51.462;6.696;2023-08-31T12:28:52;24.20;58.60
7317;DHT22;3699;51.462;6.696;2023-08-31T12:31:22;24.20;55.20
7317;DHT22;3699;51.462;6.696;2023-08-31T12:33:49;24.20;54.30
7317;DHT22;3699;51.462;6.696;2023-08-31T12:36:16;24.10;53.40
7317;DHT22;3699;51.462;6.696;2023-08-31T12:38:43;24.20;54.40
7317;DHT22;3699;51.462;6.696;2023-08-31T12:41:09;24.00;51.20
7317;DHT22;3699;51.462;6.696;2023-08-31T12:43:36;23.90;54.30
7317;DHT22;3699;51.462;6.696;2023-08-31T12:46:04;23.90;54.60
7317;DHT22;3699;51.462;6.696;2023-08-31T12:48:33;23.90;51.50
7317;DHT22;3699;51.462;6.696;2023-08-31T12:50:59;23.90;51.90
7317;DHT22;3699;51.462;6.696;2023-08-31T12:53:27;26.70;51.00
7317;DHT22;3699;51.462;6.696;2023-08-31T12:55:54;23.80;48.00
7317;DHT22;3699;51.462;6.696;2023-08-31T12:58:20;23.70;50.10
7317;DHT22;3699;51.462;6.696;2023-08-31T13:00:48;23.50;48.20
7317;DHT22;3699;51.462;6.696;2023-08-31T13:03:16;23.40;49.80
7317;DHT22;3699;51.462;6.696;2023-08-31T13:05:44;23.60;49.30
7317;DHT22;3699;51.462;6.696;2023-08-31T13:08:10;23.60;51.30
7317;DHT22;3699;51.462;6.696;2023-08-31T13:10:37;23.50;47.50
7317;DHT22;3699;51.462;6.696;2023-08-31T13:13:04;23.40;49.20
7317;DHT22;3699;51.462;6.696;2023-08-31T13:15:31;23.50;51.50
7317;DHT22;3699;51.462;6.696;2023-08-31T13:17:58;23.50;52.10
7317;DHT22;3699;51.462;6.696;2023-08-31T13:20:26;23.50;49.70
7317;DHT22;3699;51.462;6.696;2023-08-31T13:22:54;23.40;48.60
7317;DHT22;3699;51.462;6.696;2023-08-31T13:25:21;23.40;51.20
7317;DHT22;3699;51.462;6.696;2023-08-31T13:27:47;23.30;50.10
7317;DHT22;3699;51.462;6.696;2023-08-31T13:30:14;23.30;51.00
7317;DHT22;3699;51.462;6.696;2023-08-31T13:32:41;23.20;51.80
7317;DHT22;3699;51.462;6.696;2023-08-31T13:35:09;23.20;50.90
7317;DHT22;3699;51.462;6.696;2023-08-31T13:37:36;23.10;50.80
7317;DHT22;3699;51.462;6.696;2023-08-31T13:40:06;23.00;51.10
7317;DHT22;3699;51.462;6.696;2023-08-31T13:42:34;23.00;51.80
7317;DHT22;3699;51.462;6.696;2023-08-31T13:45:05;22.90;52.60
7317;DHT22;3699;51.462;6.696;2023-08-31T13:47:32;22.70;53.10
7317;DHT22;3699;51.462;6.696;2023-08-31T13:49:58;22.40;53.00
7317;DHT22;3699;51.462;6.696;2023-08-31T13:52:25;22.20;57.00
7317;DHT22;3699;51.462;6.696;2023-08-31T13:54:52;22.00;56.20
7317;DHT22;3699;51.462;6.696;2023-08-31T13:57:20;21.80;62.50
7317;DHT22;3699;51.462;6.696;2023-08-31T13:59:47;21.70;62.60
7317;DHT22;3699;51.462;6.696;2023-08-31T14:02:14;21.10;73.40
7317;DHT22;3699;51.462;6.696;2023-08-31T14:04:41;21.10;75.40
7317;DHT22;3699;51.462;6.696;2023-08-31T14:07:08;20.80;99.60
7317;DHT22;3699;51.462;6.696;2023-08-31T14:09:35;20.40;99.90
7317;DHT22;3699;51.462;6.696;2023-08-31T14:12:02;20.00;99.90
7317;DHT22;3699;51.462;6.696;2023-08-31T14:14:30;19.70;99.90
7317;DHT22;3699;51.462;6.696;2023-08-31T14:16:56;19.40;99.90
7317;DHT22;3699;51.462;6.696;2023-08-31T14:19:23;19.10;99.90
7317;DHT22;3699;51.462;6.696;2023-08-31T14:21:50;18.90;99.90
7317;DHT22;3699;51.462;6.696;2023-08-31T14:24:18;18.60;99.90
7317;DHT22;3699;51.462;6.696;2023-08-31T14:26:45;18.50;99.90
7317;DHT22;3699;51.462;6.696;2023-08-31T14:29:12;18.30;99.90
7317;DHT22;3699;51.462;6.696;2023-08-31T14:31:40;18.00;99.90
7317;DHT22;3699;51.462;6.696;2023-08-31T14:34:06;18.20;99.90
7317;DHT22;3699;51.462;6.696;2023-08-31T14:36:33;18.10;99.90
7317;DHT22;3699;51.462;6.696;2023-08-31T14:39:00;18.10;99.90
7317;DHT22;3699;51.462;6.696;2023-08-31T14:41:29;18.20;99.90
7317;DHT22;3699;51.462;6.696;2023-08-31T14:43:56;18.20;99.90
7317;DHT22;3699;51.462;6.696;2023-08-31T14:46:23;18.30;99.90
7317;DHT22;3699;51.462;6.696;2023-08-31T14:48:51;18.20;99.90
7317;DHT22;3699;51.462;6.696;2023-08-31T14:51:18;18.20;99.90
7317;DHT22;3699;51.462;6.696;2023-08-31T14:53:44;18.20;99.90
7317;DHT22;3699;51.462;6.696;2023-08-31T14:56:11;18.20;99.90
7317;DHT22;3699;51.462;6.696;2023-08-31T14:58:38;18.10;99.90
7317;DHT22;3699;51.462;6.696;2023-08-31T15:01:05;18.10;99.90
7317;DHT22;3699;51.462;6.696;2023-08-31T15:03:32;18.10;99.90
7317;DHT22;3699;51.462;6.696;2023-08-31T15:06:00;18.10;99.90
7317;DHT22;3699;51.462;6.696;2023-08-31T15:08:35;18.00;99.90
7317;DHT22;3699;51.462;6.696;2023-08-31T15:11:03;18.00;99.90
7317;DHT22;3699;51.462;6.696;2023-08-31T15:13:29;18.00;99.90
7317;DHT22;3699;51.462;6.696;2023-08-31T15:15:56;18.00;99.90
7317;DHT22;3699;51.462;6.696;2023-08-31T15:18:24;19.40;99.90
7317;DHT22;3699;51.462;6.696;2023-08-31T15:20:51;17.90;99.90
7317;DHT22;3699;51.462;6.696;2023-08-31T15:23:19;17.90;99.90
7317;DHT22;3699;51.462;6.696;2023-08-31T15:25:46;17.90;99.90
7317;DHT22;3699;51.462;6.696;2023-08-31T15:28:13;17.80;99.90
7317;DHT22;3699;51.462;6.696;2023-08-31T15:30:42;17.80;99.90
7317;DHT22;3699;51.462;6.696;2023-08-31T15:33:09;17.80;99.90
7317;DHT22;3699;51.462;6.696;2023-08-31T15:35:36;17.80;99.90
7317;DHT22;3699;51.462;6.696;2023-08-31T15:38:04;17.80;99.90
7317;DHT22;3699;51.462;6.696;2023-08-31T15:40:32;17.80;99.90
7317;DHT22;3699;51.462;6.696;2023-08-31T15:42:59;17.90;99.90
7317;DHT22;3699;51.462;6.696;2023-08-31T15:45:26;17.90;99.90
7317;DHT22;3699;51.462;6.696;2023-08-31T15:47:53;17.90;99.90
7317;DHT22;3699;51.462;6.696;2023-08-31T15:50:20;17.90;99.90
7317;DHT22;3699;51.462;6.696;2023-08-31T15:52:46;17.90;99.90
7317;DHT22;3699;51.462;6.696;2023-08-31T15:55:13;17.90;99.90
7317;DHT22;3699;51.462;6.696;2023-08-31T15:57:48;17.90;99.90
7317;DHT22;3699;51.462;6.696;2023-08-31T16:00:15;17.90;99.90
7317;DHT22;3699;51.462;6.696;2023-08-31T16:02:45;18.00;99.90
7317;DHT22;3699;51.462;6.696;2023-08-31T16:05:13;18.10;99.90
7317;DHT22;3699;51.462;6.696;2023-08-31T16:07:40;18.20;99.90
7317;DHT22;3699;51.462;6.696;2023-08-31T16:10:07;18.30;99.90